Munising, MI

3:03 AM EDT on September 05, 2015 (GMT -0400)
APRSWXNET | | Change Station
CLOSE
Current Station
Personal Weather Station
Location: Munising, MI
Elevation: 636 ft
Nearby Weather Stations

Elev 636 ft 46.45 °N, 86.72 °W | Updated 35 minutes ago

Mostly Cloudy
Mostly Cloudy
66 °F
Feels Like 66 °F
N
0
Wind Variable Wind from SE
Gusts 0.0 mph

Today
High -- | Low -- °F
--% Chance of Precip.
Yesterday
High -- | Low -- °F
Precip. -- in
7:11 AM 8:18 PM
Waning Gibbous, 51% visible
Pressure 30.08 in
Visibility 10.0 miles
Clouds Scattered Clouds 1500 ft
Mostly Cloudy 4000 ft
Dew Point 65 °F
Humidity 96%
Rainfall in
Snow Depth Not available.
UV 0 out of 12
Pollen 9.70 out of 12
Air Quality Not available.
Flu Activity Not available.
METAR KSAW 050656Z AUTO 00000KT 10SM SCT015 BKN040 20/18 A3008 RMK AO2 T01960181
Pressure 30.08 in
Visibility 10.0 miles
Clouds Scattered Clouds 1500 ft
Mostly Cloudy 4000 ft
Dew Point 65 °F
Humidity 96%
Rainfall in
Snow Depth Not available.
UV 0 out of 12
Pollen 9.70 out of 12
Air Quality Not available.
Flu Activity Not available.
METAR KSAW 050656Z AUTO 00000KT 10SM SCT015 BKN040 20/18 A3008 RMK AO2 T01960181

10-Day Weather Forecast

×

Almanac

Astronomy

Sep. 05, 2015 Rise Set
Actual Time
Civil Twilight
Nautical Twilight
Astronomical Twilight
Moon
Length of Visible Light
Length of Day
Tomorrow will be .
, % of the Moon is Illuminated

Today's Extremes

State Highs State Lows

Community

WunderPhotos

Upload Photos

1,852,430 photos uploaded!

WunderBlogs® & News

Nearby

Air Quality

  Air Quality AQ Index Pollutant
Not available.

Snow Depth

Station Depth Elevation

Earthquake Activity

City Distance Mag. Time & Date
Minimum magnitude displayed is 2.5.

Coastal Water Temperatures

Place Temperature

Stations

Nearby Weather Stations

Station Location Temp. Windchill Dew Point Humidity Wind Precip. Elev Updated Type